Latest Weather Observations for Laverton

IDV60801

Issued at 2:03 pm EST Saturday 27 May 2017 (issued every 30 minutes, with the page automatically refreshed every 10 minutes)

About weather observations | Map of weather stations | Latest weather observations for VIC | Other Formats
Station Details ID: 087031 Name: LAVERTON RAAF Lat: -37.86 Lon: 144.76 Height: 20.1 m
Data from the previous 72 hours. | See also: Recent months at Laverton
Date/Time
EST
Temp
°C
App
Temp
°C
Dew
Point
°C
Rel
Hum
%
Delta-T
°C
Wind Press
QNH
hPa
Press
MSL
hPa
Rain since
9am
mm
Dir  Spd
km/h
Gust
km/h
Spd
kts
Gust
kts
27/02:00pm 17.3 12.6 9.2 59 4.2 NNW 24 41 13 22 1012.3 1012.3 0.0
27/01:30pm 17.6 11.9 8.5 55 4.7 NNW 28 39 15 21 1012.7 1012.7 0.0
27/01:00pm 17.7 12.1 8.8 56 4.6 N 28 44 15 24 1013.3 1013.3 0.0
27/12:39pm 18.1 12.5 8.7 54 4.9 NNW 28 48 15 26 1013.7 1013.7 0.0
27/12:30pm 18.1 11.8 8.9 55 4.8 NNW 32 41 17 22 1013.8 1013.8 0.0
27/12:00pm 18.3 12.8 9.1 55 4.8 N 28 46 15 25 1014.6 1014.6 0.0
27/11:30am 17.4 13.7 10.3 63 3.8 N 20 28 11 15 1015.5 1015.5 0.0
27/11:00am 17.8 13.4 10.4 62 3.9 N 24 37 13 20 1016.0 1016.0 0.0
27/10:30am 16.4 12.7 10.3 67 3.2 N 20 30 11 16 1016.3 1016.3 0.0
27/10:00am 15.7 12.2 10.2 70 2.9 N 19 28 10 15 1016.7 1016.7 0.0
27/09:30am 14.9 11.8 10.3 74 2.4 N 17 24 9 13 1017.1 1017.1 0.0
27/09:00am 14.0 10.5 10.2 78 2.0 N 19 26 10 14 1017.3 1017.3 0.0
27/08:30am 13.3 10.2 10.3 82 1.6 N 17 28 9 15 1017.3 1017.3 0.0
27/08:00am 12.9 9.2 10.3 84 1.3 N 20 28 11 15 1017.2 1017.2 0.0
27/07:30am 12.8 8.8 10.3 85 1.3 N 22 30 12 16 1017.2 1017.2 0.0
27/07:00am 12.5 9.4 10.4 87 1.1 N 17 24 9 13 1017.3 1017.3 0.0
27/06:30am 12.7 9.6 10.4 86 1.2 N 17 24 9 13 1017.2 1017.2 0.0
27/06:00am 13.1 10.1 10.6 85 1.3 N 17 22 9 12 1017.0 1017.0 0.0
27/05:30am 12.5 10.7 10.7 89 0.9 N 11 17 6 9 1017.2 1017.2 0.0
27/05:00am 13.0 10.5 10.9 87 1.1 N 15 22 8 12 1017.3 1017.3 0.0
27/04:30am 13.2 10.0 11.1 87 1.1 N 19 28 10 15 1017.2 1017.2 0.0
27/04:00am 13.0 10.2 11.2 89 0.9 N 17 24 9 13 1017.4 1017.4 0.0
27/03:30am 13.1 9.9 11.3 89 1.0 N 19 28 10 15 1017.7 1017.7 0.0
27/03:00am 12.7 9.5 11.3 91 0.7 N 19 24 10 13 1017.9 1017.9 0.0
27/02:30am 12.8 10.0 11.5 92 0.7 N 17 24 9 13 1018.2 1018.2 0.0
27/02:00am 11.9 9.8 11.1 95 0.4 NNE 13 19 7 10 1018.4 1018.4 0.0
27/01:30am 12.1 9.8 11.9 99 0.1 N 15 20 8 11 1018.5 1018.5 0.0
27/01:00am 9.2 7.3 9.1 99 0.0 NNW 9 13 5 7 1018.9 1018.9 0.0
27/12:30am 8.9 6.9 8.8 99 0.0 N 9 13 5 7 1019.1 1019.1 0.0
27/12:00am 7.5 5.6 7.4 99 0.0 N 7 9 4 5 1019.2 1019.2 0.0
 
Date/Time
EST
Temp
°C
App
Temp
°C
Dew
Point
°C
Rel
Hum
%
Delta-T
°C
Wind Press
QNH
hPa
Press
MSL
hPa
Rain since
9am
mm
Dir  Spd
km/h
Gust
km/h
Spd
kts
Gust
kts
26/11:30pm 8.0 5.8 7.7 98 0.1 NNW 9 9 5 5 1019.4 1019.4 0.0
26/11:00pm 8.4 6.2 8.0 97 0.2 NNW 9 11 5 6 1019.6 1019.6 0.0
26/10:30pm 8.4 6.6 7.8 96 0.3 NNW 7 9 4 5 1019.7 1019.7 0.0
26/10:00pm 8.6 6.0 7.7 94 0.4 NNW 11 13 6 7 1019.9 1019.9 0.0
26/09:30pm 8.9 6.7 7.7 92 0.6 NNW 9 11 5 6 1019.9 1019.9 0.0
26/09:00pm 8.6 6.3 7.4 92 0.6 NNW 9 13 5 7 1019.9 1019.9 0.0
26/08:30pm 8.6 5.9 7.2 91 0.7 NW 11 11 6 6 1019.9 1019.9 0.0
26/08:00pm 10.5 8.9 8.8 89 0.8 E 7 9 4 5 1019.8 1019.8 0.0
26/07:30pm 11.0 9.9 8.4 84 1.3 E 4 7 2 4 1019.8 1019.8 0.0
26/07:00pm 10.9 10.2 8.5 85 1.2 E 2 7 1 4 1019.7 1019.7 0.0
26/06:30pm 11.0 9.8 7.9 81 1.5 E 4 6 2 3 1019.9 1019.9 0.0
26/06:00pm 11.6 9.8 7.9 78 1.8 ESE 7 7 4 4 1019.7 1019.7 0.0
26/05:30pm 12.0 10.4 7.9 76 2.0 E 6 7 3 4 1019.8 1019.8 0.0
26/05:00pm 12.7 11.0 7.6 71 2.5 ESE 6 7 3 4 1019.7 1019.7 0.0
26/04:30pm 13.5 11.7 7.9 69 2.8 SE 7 11 4 6 1019.6 1019.6 0.0
26/04:00pm 13.9 11.7 7.9 67 3.0 SSE 9 13 5 7 1019.7 1019.7 0.0
26/03:30pm 14.2 11.7 8.2 67 3.0 SSE 11 15 6 8 1019.8 1019.8 0.0
26/03:00pm 14.8 11.9 8.1 64 3.3 SE 13 19 7 10 1019.7 1019.7 0.0
26/02:30pm 14.5 11.5 7.5 63 3.5 ESE 13 17 7 9 1020.0 1020.0 0.0
26/02:00pm 15.7 13.6 8.4 62 3.7 SE 9 15 5 8 1020.3 1020.3 0.0
26/01:30pm 16.1 14.3 8.1 59 4.0 SE 7 9 4 5 1020.5 1020.5 0.0
26/01:00pm 15.9 14.4 8.4 61 3.8 N 6 9 3 5 1020.9 1020.9 0.0
26/12:30pm 15.3 13.1 7.8 61 3.7 WSW 9 13 5 7 1021.5 1021.5 0.0
26/12:00pm 16.7 15.6 8.4 58 4.2 NW 4 13 2 7 1022.0 1022.0 0.0
26/11:30am 15.5 14.0 8.5 63 3.6 W 6 11 3 6 1022.5 1022.5 0.0
26/11:00am 14.6 12.8 9.6 72 2.6 SW 9 13 5 7 1023.0 1023.0 0.0
26/10:30am 13.9 12.8 10.1 78 2.0 WNW 6 11 3 6 1023.2 1023.2 0.0
26/10:00am 13.2 11.9 10.0 81 1.6 NW 7 11 4 6 1023.1 1023.1 0.0
26/09:30am 12.9 10.9 10.1 83 1.4 W 11 13 6 7 1022.9 1022.9 0.0
26/09:00am 12.6 11.5 10.7 88 1.0 NW 7 9 4 5 1023.0 1023.0 0.0
26/08:30am 11.9 10.9 10.3 90 0.8 W 6 9 3 5 1022.7 1022.7 0.0
26/08:00am 11.6 10.0 10.2 91 0.7 W 9 11 5 6 1022.5 1022.5 0.0
26/07:30am 11.0 9.3 9.9 93 0.6 WNW 9 11 5 6 1022.2 1022.2 0.0
26/07:00am 11.3 8.9 9.9 91 0.7 WNW 13 15 7 8 1021.9 1021.9 0.0
26/06:30am 11.4 9.4 10.1 92 0.7 W 11 13 6 7 1021.7 1021.7 0.0
26/06:00am 11.6 10.4 10.2 91 0.7 W 7 11 4 6 1021.3 1021.3 0.0
26/05:30am 12.0 10.5 10.6 91 0.7 W 9 13 5 7 1021.0 1021.0 0.0
26/05:00am 12.4 10.3 11.0 91 0.7 W 13 17 7 9 1020.8 1020.8 0.0
26/04:30am 12.6 10.9 11.3 92 0.7 W 11 17 6 9 1020.5 1020.5 0.0
26/04:00am 12.8 10.9 11.7 93 0.6 WSW 13 17 7 9 1020.2 1020.2 0.0
26/03:30am 13.0 11.6 12.1 94 0.5 W 11 15 6 8 1020.1 1020.1 0.0
26/03:00am 13.3 11.9 12.2 93 0.6 W 11 15 6 8 1020.0 1020.0 0.0
26/02:30am 13.1 11.9 11.7 91 0.7 W 9 13 5 7 1020.0 1020.0 0.0
26/02:00am 13.0 11.7 11.1 88 1.0 SSW 9 11 5 6 1019.8 1019.8 0.0
26/01:30am 13.6 11.4 10.8 83 1.5 NW 13 28 7 15 1019.9 1019.9 0.0
26/01:00am 13.6 12.1 10.6 82 1.6 N 9 13 5 7 1019.4 1019.4 0.0
26/12:30am 13.6 11.3 10.4 81 1.7 N 13 19 7 10 1019.4 1019.4 0.0
26/12:00am 13.5 11.2 10.3 81 1.7 N 13 20 7 11 1019.4 1019.4 0.0
 
Date/Time
EST
Temp
°C
App
Temp
°C
Dew
Point
°C
Rel
Hum
%
Delta-T
°C
Wind Press
QNH
hPa
Press
MSL
hPa
Rain since
9am
mm
Dir  Spd
km/h
Gust
km/h
Spd
kts
Gust
kts
25/11:30pm 13.0 10.2 10.0 82 1.5 N 15 19 8 10 1019.2 1019.2 0.0
25/11:00pm 13.4 10.7 10.2 81 1.7 N 15 20 8 11 1019.4 1019.4 0.0
25/10:30pm 13.5 11.6 10.5 82 1.6 NNW 11 17 6 9 1019.5 1019.5 0.0
25/10:00pm 13.7 11.5 10.7 82 1.6 N 13 19 7 10 1019.4 1019.4 0.0
25/09:30pm 13.8 11.5 10.6 81 1.7 N 13 20 7 11 1019.3 1019.3 0.0
25/09:00pm 13.9 10.5 10.5 80 1.8 NNW 19 28 10 15 1018.9 1018.9 0.0
25/08:30pm 14.4 11.4 10.6 78 2.0 N 17 22 9 12 1018.9 1018.9 0.0
25/08:00pm 14.9 12.7 10.7 76 2.2 N 13 17 7 9 1019.2 1019.2 0.0
25/07:30pm 15.1 12.9 10.7 75 2.3 N 13 17 7 9 1019.2 1019.2 0.0
25/07:00pm 15.0 12.4 10.8 76 2.2 N 15 20 8 11 1019.0 1019.0 0.0
25/06:30pm 14.7 11.2 10.9 78 2.0 NNW 20 33 11 18 1018.8 1018.8 0.0
25/06:00pm 15.7 12.6 10.2 70 2.9 NNW 17 24 9 13 1018.8 1018.8 0.0
25/05:30pm 15.9 12.8 10.2 69 3.0 NNW 17 24 9 13 1018.6 1018.6 0.0
25/05:00pm 16.1 13.4 10.2 68 3.1 NW 15 20 8 11 1018.5 1018.5 0.0
25/04:30pm 16.5 12.0 9.9 65 3.5 NW 24 33 13 18 1018.3 1018.3 0.0
25/04:00pm 16.9 12.3 9.8 63 3.7 NW 24 33 13 18 1018.2 1018.2 0.0
25/03:30pm 17.0 12.0 9.7 62 3.8 NW 26 35 14 19 1017.9 1017.9 0.0
25/03:00pm 17.3 12.3 9.5 60 4.1 NW 26 37 14 20 1017.9 1017.9 0.0
25/02:30pm 17.3 13.0 9.5 60 4.1 NW 22 30 12 16 1018.1 1018.1 0.0
25/02:00pm 17.1 12.3 9.0 59 4.2 NW 24 32 13 17 1018.3 1018.3 0.0
25/01:30pm 17.0 12.9 8.7 58 4.3 NW 20 28 11 15 1018.5 1018.5 0.0
25/01:00pm 17.1 12.6 8.5 57 4.4 NW 22 32 12 17 1019.0 1019.0 0.0
25/12:30pm 17.3 13.4 8.7 57 4.4 N 19 28 10 15 1019.3 1019.3 0.0
25/12:00pm 16.5 12.4 8.7 60 4.0 NNW 20 28 11 15 1019.8 1019.8 0.0
25/11:30am 15.3 11.3 8.1 62 3.6 N 19 28 10 15 1020.4 1020.4 0.0
25/11:00am 14.6 10.9 8.1 65 3.2 N 17 26 9 14 1020.9 1020.9 0.0
25/10:30am 14.3 10.2 8.0 66 3.1 NNW 19 26 10 14 1020.9 1020.9 0.0
25/10:00am 14.0 11.1 8.0 67 3.0 NNW 13 19 7 10 1021.1 1021.1 0.0
25/09:30am 13.4 9.7 8.0 70 2.7 NW 17 22 9 12 1021.3 1021.3 0.0
25/09:00am 13.1 9.9 8.6 74 2.2 WNW 15 20 8 11 1021.0 1021.0 0.0
25/08:30am 13.1 10.2 8.2 72 2.4 WNW 13 17 7 9 1020.8 1020.8 0.0
25/08:00am 12.6 10.4 9.2 80 1.7 NW 11 15 6 8 1020.5 1020.5 0.0
25/07:30am 12.3 11.1 9.5 83 1.4 NW 6 9 3 5 1020.3 1020.3 0.0
25/07:00am 12.3 10.5 9.5 83 1.4 NW 9 9 5 5 1020.2 1020.2 0.0
25/06:30am 12.6 11.1 9.2 80 1.7 NNW 7 9 4 5 1020.1 1020.1 0.0
25/06:00am 12.7 11.4 9.3 80 1.7 NNW 6 7 3 4 1019.9 1019.9 0.0
25/05:30am 12.8 11.4 9.4 80 1.7 N 7 9 4 5 1019.8 1019.8 0.0
25/05:00am 12.4 11.1 10.0 85 1.2 NNW 7 9 4 5 1019.9 1019.9 0.0
25/04:30am 12.4 11.1 10.0 85 1.2 NNW 7 11 4 6 1019.8 1019.8 0.0
25/04:00am 12.5 11.2 10.0 85 1.3 NNW 7 11 4 6 1019.5 1019.5 0.0
25/03:30am 12.4 10.8 10.1 86 1.2 NW 9 13 5 7 1019.6 1019.6 0.0
25/03:00am 12.2 11.0 10.3 88 1.0 NNW 7 9 4 5 1019.8 1019.8 0.0
25/02:30am 12.3 11.1 10.4 88 1.0 NW 7 11 4 6 1019.7 1019.7 0.0
25/02:00am 12.2 10.6 10.3 88 1.0 NW 9 13 5 7 1019.8 1019.8 0.0
25/01:30am 12.2 10.2 10.3 88 1.0 NW 11 13 6 7 1020.0 1020.0 0.0
25/01:00am 12.2 10.2 10.1 87 1.1 NW 11 13 6 7 1020.1 1020.1 0.0
25/12:30am 12.6 10.5 9.8 83 1.4 NW 11 15 6 8 1020.2 1020.2 0.0
25/12:00am 12.8 10.9 9.1 78 1.9 NNW 9 13 5 7 1020.2 1020.2 0.0
 
Date/Time
EST
Temp
°C
App
Temp
°C
Dew
Point
°C
Rel
Hum
%
Delta-T
°C
Wind Press
QNH
hPa
Press
MSL
hPa
Rain since
9am
mm
Dir  Spd
km/h
Gust
km/h
Spd
kts
Gust
kts
24/11:30pm 12.6 10.6 8.7 77 1.9 NNW 9 13 5 7 1020.2 1020.2 0.0
24/11:00pm 12.4 10.1 8.9 79 1.7 NNW 11 13 6 7 1020.2 1020.2 0.0
24/10:30pm 11.6 9.9 8.5 81 1.5 NNW 7 9 4 5 1020.3 1020.3 0.0
24/10:00pm 11.0 8.8 7.7 80 1.6 NW 9 11 5 6 1020.3 1020.3 0.0
24/09:30pm 11.7 9.9 7.8 77 1.9 NW 7 9 4 5 1020.1 1020.1 0.0
24/09:00pm 12.1 10.3 8.0 76 2.0 NW 7 9 4 5 1019.9 1019.9 0.0
24/08:30pm 12.7 10.6 8.4 75 2.1 NW 9 11 5 6 1019.7 1019.7 0.0
24/08:00pm 13.2 11.1 8.1 71 2.5 WNW 9 11 5 6 1019.6 1019.6 0.0
24/07:30pm 13.6 11.4 7.8 68 2.9 W 9 13 5 7 1019.5 1019.5 0.0
24/07:00pm 12.9 10.3 7.8 71 2.5 WNW 11 17 6 9 1019.3 1019.3 0.0
24/06:30pm 13.0 10.4 7.7 70 2.6 NW 11 11 6 6 1019.0 1019.0 0.0
24/06:00pm 13.9 11.2 7.4 65 3.2 WNW 11 15 6 8 1018.7 1018.7 0.0
24/05:30pm 13.8 11.6 7.8 67 3.0 WNW 9 17 5 9 1018.4 1018.4 0.0
24/05:00pm 14.3 11.6 7.4 63 3.4 W 11 15 6 8 1018.2 1018.2 0.0
24/04:30pm 15.3 11.0 7.1 58 4.0 W 19 24 10 13 1017.8 1017.8 0.0
24/04:00pm 16.0 11.6 7.2 56 4.4 W 20 32 11 17 1017.5 1017.5 0.0
24/03:30pm 15.7 11.3 7.5 58 4.1 W 20 32 11 17 1017.2 1017.2 0.0
24/03:00pm 15.4 10.6 7.4 59 4.0 WSW 22 33 12 18 1016.8 1016.8 0.0
24/02:30pm 15.0 10.5 8.5 65 3.3 WSW 22 32 12 17 1016.7 1016.7 0.0

Other Formats:

Comma delimited format used in spreadsheet applications
http://www.bom.gov.au/fwo/IDV60801/IDV60801.94865.axf

JavaScript Object Notation format (JSON) in row-major order
http://www.bom.gov.au/fwo/IDV60801/IDV60801.94865.json